createdAt,value
2022-08-26T00:00:11.451Z,21.25
2022-08-26T00:01:15.449Z,21.25
2022-08-26T00:02:20.566Z,21.23
2022-08-26T00:03:24.121Z,21.20
2022-08-26T00:04:27.375Z,21.23
2022-08-26T00:05:29.498Z,21.22
2022-08-26T00:06:33.631Z,21.22
2022-08-26T00:07:37.433Z,21.22
2022-08-26T00:08:41.334Z,21.21
2022-08-26T00:09:47.342Z,21.21
2022-08-26T00:10:51.060Z,21.20
2022-08-26T00:11:54.519Z,21.18
2022-08-26T00:12:57.806Z,21.18
2022-08-26T00:13:59.973Z,21.19
2022-08-26T00:15:03.141Z,21.20
2022-08-26T00:16:08.883Z,21.17
2022-08-26T00:17:14.897Z,21.18
2022-08-26T00:18:22.144Z,21.19
2022-08-26T00:19:25.759Z,21.18
2022-08-26T00:20:31.217Z,21.17
2022-08-26T00:21:34.554Z,21.15
2022-08-26T00:22:38.344Z,21.17
2022-08-26T00:23:41.596Z,21.17
2022-08-26T00:24:47.944Z,21.16
2022-08-26T00:25:51.680Z,21.17
2022-08-26T00:26:53.898Z,21.17
2022-08-26T00:27:57.622Z,21.14
2022-08-26T00:28:59.752Z,21.15
2022-08-26T00:30:05.282Z,21.13
2022-08-26T00:31:10.966Z,21.14
2022-08-26T00:32:13.420Z,21.13
2022-08-26T00:33:18.428Z,21.12
2022-08-26T00:34:20.660Z,21.12
2022-08-26T00:35:24.762Z,21.12
2022-08-26T00:36:30.108Z,21.11
2022-08-26T00:37:33.483Z,21.11
2022-08-26T00:38:38.943Z,21.10
2022-08-26T00:39:41.338Z,21.10
2022-08-26T00:40:47.168Z,21.07
2022-08-26T00:41:50.511Z,21.10
2022-08-26T00:42:54.270Z,21.09
2022-08-26T00:43:57.410Z,21.09
2022-08-26T00:45:00.809Z,21.08
2022-08-26T00:46:09.176Z,21.07
2022-08-26T00:47:21.781Z,21.07
2022-08-26T00:48:31.752Z,21.07
2022-08-26T00:49:38.927Z,21.07
2022-08-26T00:50:49.440Z,21.06
2022-08-26T00:51:55.794Z,21.06
2022-08-26T00:53:01.279Z,21.06
2022-08-26T00:54:10.735Z,21.05
2022-08-26T00:55:20.453Z,20.95
2022-08-26T00:56:29.670Z,21.05
2022-08-26T00:57:34.197Z,21.06
2022-08-26T00:58:38.804Z,21.04
2022-08-26T00:59:45.670Z,21.05
2022-08-26T01:00:48.127Z,21.05
2022-08-26T01:01:52.039Z,21.05
2022-08-26T01:02:56.148Z,21.05
2022-08-26T01:04:00.917Z,21.04
2022-08-26T01:05:05.969Z,21.05
2022-08-26T01:06:12.616Z,21.04
2022-08-26T01:07:16.280Z,21.05
2022-08-26T01:08:19.402Z,21.04
2022-08-26T01:09:24.570Z,21.04
2022-08-26T01:10:31.294Z,21.04
2022-08-26T01:11:34.159Z,21.04
2022-08-26T01:12:42.395Z,21.02
2022-08-26T01:13:44.897Z,21.04
2022-08-26T01:14:48.989Z,21.02
2022-08-26T01:15:54.963Z,21.03
2022-08-26T01:16:58.566Z,21.02
2022-08-26T01:18:01.735Z,21.02
2022-08-26T01:19:11.255Z,21.03
2022-08-26T01:20:27.561Z,21.03
2022-08-26T01:21:40.729Z,21.00
2022-08-26T01:22:53.311Z,21.00
2022-08-26T01:23:57.857Z,21.00
2022-08-26T01:25:03.569Z,21.00
2022-08-26T01:26:19.695Z,21.00
2022-08-26T01:27:22.630Z,20.99
2022-08-26T01:28:30.670Z,20.98
2022-08-26T01:29:35.056Z,20.99
2022-08-26T01:30:40.866Z,20.99
2022-08-26T01:31:46.591Z,20.94
2022-08-26T01:32:51.637Z,20.97
2022-08-26T01:34:02.084Z,20.98
2022-08-26T01:35:05.957Z,20.98
2022-08-26T01:36:08.662Z,20.97
2022-08-26T01:37:15.908Z,20.97
2022-08-26T01:38:20.019Z,20.95
2022-08-26T01:39:23.277Z,20.96
2022-08-26T01:40:29.940Z,20.95
2022-08-26T01:41:33.826Z,20.94
2022-08-26T01:42:36.165Z,20.94
2022-08-26T01:43:41.326Z,20.93
2022-08-26T01:44:47.142Z,20.93
2022-08-26T01:45:54.624Z,20.93
2022-08-26T01:46:58.932Z,20.91
2022-08-26T01:48:05.566Z,20.91
2022-08-26T01:49:08.782Z,20.91
2022-08-26T01:50:20.134Z,20.89
2022-08-26T01:51:37.285Z,20.87
2022-08-26T01:52:43.670Z,20.86
2022-08-26T01:53:48.310Z,20.86
2022-08-26T01:54:51.648Z,20.85
2022-08-26T01:55:59.439Z,20.83
2022-08-26T01:57:03.103Z,20.83
2022-08-26T01:58:10.452Z,20.81
2022-08-26T01:59:16.887Z,20.80
2022-08-26T02:00:20.776Z,20.79
2022-08-26T02:01:24.849Z,20.79
2022-08-26T02:02:32.576Z,20.76
2022-08-26T02:03:42.287Z,20.76
2022-08-26T02:04:53.689Z,20.74
2022-08-26T02:05:59.185Z,20.69
2022-08-26T02:07:06.083Z,20.69
2022-08-26T02:08:10.403Z,20.67
2022-08-26T02:09:16.379Z,20.68
2022-08-26T02:10:18.600Z,20.66
2022-08-26T02:11:24.134Z,20.64
2022-08-26T02:12:28.338Z,20.64
2022-08-26T02:13:34.041Z,20.63
2022-08-26T02:14:43.790Z,20.62
2022-08-26T02:15:48.619Z,20.60
2022-08-26T02:16:53.209Z,20.59
2022-08-26T02:17:57.437Z,20.59
2022-08-26T02:19:02.510Z,20.57
2022-08-26T02:20:06.850Z,20.57
2022-08-26T02:21:17.979Z,20.56
2022-08-26T02:22:22.675Z,20.56
2022-08-26T02:23:28.296Z,20.54
2022-08-26T02:24:49.107Z,20.55
2022-08-26T02:25:57.931Z,20.53
2022-08-26T02:27:01.197Z,20.52
2022-08-26T02:28:05.014Z,20.52
2022-08-26T02:29:13.467Z,20.51
2022-08-26T02:30:21.709Z,20.50
2022-08-26T02:31:24.285Z,20.49
2022-08-26T02:32:27.456Z,20.49
2022-08-26T02:33:30.009Z,20.48
2022-08-26T02:34:34.898Z,20.45
2022-08-26T02:35:38.136Z,20.46
2022-08-26T02:36:41.912Z,20.47
2022-08-26T02:37:44.310Z,20.48
2022-08-26T02:38:47.554Z,20.48
2022-08-26T02:39:51.362Z,20.48
2022-08-26T02:40:55.378Z,20.48
2022-08-26T02:41:59.162Z,20.48
2022-08-26T02:43:02.502Z,20.49
2022-08-26T02:44:07.149Z,20.49
2022-08-26T02:45:11.756Z,20.50
2022-08-26T02:46:28.005Z,20.49
2022-08-26T02:47:34.293Z,20.49
2022-08-26T02:48:39.840Z,20.49
2022-08-26T02:49:44.430Z,20.50
2022-08-26T02:50:49.557Z,20.49
2022-08-26T02:51:53.583Z,20.49
2022-08-26T02:52:56.303Z,20.47
2022-08-26T02:53:59.495Z,20.49
2022-08-26T02:55:06.433Z,20.48
2022-08-26T02:56:10.489Z,20.48
2022-08-26T02:57:12.807Z,20.48
2022-08-26T02:58:16.352Z,20.47
2022-08-26T02:59:18.571Z,20.46
2022-08-26T03:00:21.994Z,20.43
2022-08-26T03:01:30.001Z,20.45
2022-08-26T03:02:33.267Z,20.45
2022-08-26T03:03:35.876Z,20.43
2022-08-26T03:04:40.019Z,20.42
2022-08-26T03:05:42.694Z,20.40
2022-08-26T03:06:47.049Z,20.39
2022-08-26T03:07:56.168Z,20.37
2022-08-26T03:08:58.392Z,20.36
2022-08-26T03:10:01.814Z,20.34
2022-08-26T03:11:13.315Z,20.31
2022-08-26T03:12:16.955Z,20.31
2022-08-26T03:13:21.010Z,20.30
2022-08-26T03:14:24.842Z,20.29
2022-08-26T03:15:26.970Z,20.27
2022-08-26T03:16:32.938Z,20.26
2022-08-26T03:17:35.142Z,20.24
2022-08-26T03:18:39.166Z,20.22
2022-08-26T03:19:41.361Z,20.21
2022-08-26T03:20:44.813Z,20.20
2022-08-26T03:21:47.247Z,20.18
2022-08-26T03:22:51.526Z,20.16
2022-08-26T03:23:53.724Z,20.14
2022-08-26T03:24:56.847Z,20.13
2022-08-26T03:25:59.011Z,20.11
2022-08-26T03:27:07.275Z,20.09
2022-08-26T03:28:09.806Z,20.08
2022-08-26T03:29:32.926Z,20.07
2022-08-26T03:30:44.701Z,20.05
2022-08-26T03:31:47.767Z,20.04
2022-08-26T03:32:50.969Z,20.03
2022-08-26T03:33:57.642Z,20.02
2022-08-26T03:35:03.003Z,20.00
2022-08-26T03:36:07.762Z,19.98
2022-08-26T03:37:10.950Z,19.98
2022-08-26T03:38:13.898Z,19.98
2022-08-26T03:39:17.136Z,19.94
2022-08-26T03:40:20.469Z,19.95
2022-08-26T03:41:23.786Z,19.94
2022-08-26T03:42:27.332Z,19.93
2022-08-26T03:43:30.780Z,19.92
2022-08-26T03:44:32.977Z,19.90
2022-08-26T03:45:37.498Z,19.89
2022-08-26T03:46:40.962Z,19.88
2022-08-26T03:47:44.696Z,19.86
2022-08-26T03:48:48.227Z,19.85
2022-08-26T03:49:51.889Z,19.84
2022-08-26T03:50:55.193Z,19.82
2022-08-26T03:51:57.737Z,19.83
2022-08-26T03:53:01.113Z,19.80
2022-08-26T03:54:05.613Z,19.80
2022-08-26T03:55:12.725Z,19.79
2022-08-26T03:56:15.032Z,19.78
2022-08-26T03:57:18.346Z,19.77
2022-08-26T03:58:24.340Z,19.77
2022-08-26T03:59:28.117Z,19.77
2022-08-26T04:00:30.818Z,19.75
2022-08-26T04:01:34.350Z,19.73
2022-08-26T04:02:36.580Z,19.73
2022-08-26T04:04:00.541Z,19.73
2022-08-26T04:05:04.138Z,19.71
2022-08-26T04:06:06.909Z,19.70
2022-08-26T04:07:10.338Z,19.68
2022-08-26T04:08:12.455Z,19.68
2022-08-26T04:09:20.716Z,19.67
2022-08-26T04:10:29.284Z,19.66
2022-08-26T04:11:34.377Z,19.66
2022-08-26T04:12:39.021Z,19.65
2022-08-26T04:13:42.517Z,19.63
2022-08-26T04:14:45.704Z,19.64
2022-08-26T04:15:47.931Z,19.62
2022-08-26T04:16:52.237Z,19.62
2022-08-26T04:17:55.785Z,19.61
2022-08-26T04:18:59.061Z,19.58
2022-08-26T04:20:02.319Z,19.60
2022-08-26T04:21:04.991Z,19.59
2022-08-26T04:22:11.405Z,19.58
2022-08-26T04:23:13.852Z,19.58
2022-08-26T04:24:22.631Z,19.58
2022-08-26T04:25:24.840Z,19.57
2022-08-26T04:26:28.157Z,19.56
2022-08-26T04:27:31.379Z,19.56
2022-08-26T04:28:33.707Z,19.53
2022-08-26T04:29:39.150Z,19.55
2022-08-26T04:30:41.357Z,19.55
2022-08-26T04:31:46.947Z,19.54
2022-08-26T04:32:51.411Z,19.54
2022-08-26T04:33:53.798Z,19.54
2022-08-26T04:34:57.618Z,19.53
2022-08-26T04:36:01.527Z,19.52
2022-08-26T04:37:05.652Z,19.52
2022-08-26T04:38:08.797Z,19.54
2022-08-26T04:39:14.962Z,19.52
2022-08-26T04:40:17.205Z,19.52
2022-08-26T04:41:22.310Z,19.52
2022-08-26T04:42:26.158Z,19.52
2022-08-26T04:43:30.490Z,19.53
2022-08-26T04:44:36.877Z,19.54
2022-08-26T04:45:41.907Z,19.52
2022-08-26T04:46:45.316Z,19.53
2022-08-26T04:47:47.907Z,19.53
2022-08-26T04:48:52.600Z,19.53
2022-08-26T04:49:57.569Z,19.53
2022-08-26T04:51:00.032Z,19.55
2022-08-26T04:52:03.651Z,19.56
2022-08-26T04:53:07.185Z,19.55
2022-08-26T04:54:10.691Z,19.57
2022-08-26T04:55:13.547Z,19.57
2022-08-26T04:56:17.217Z,19.58
2022-08-26T04:57:19.421Z,19.58
2022-08-26T04:58:24.537Z,19.58
2022-08-26T04:59:27.564Z,19.58
2022-08-26T05:00:31.836Z,19.59
2022-08-26T05:01:39.463Z,19.60
2022-08-26T05:02:42.864Z,19.61
2022-08-26T05:03:45.206Z,19.57
2022-08-26T05:04:48.414Z,19.61
2022-08-26T05:05:54.728Z,19.62
2022-08-26T05:07:02.226Z,19.64
2022-08-26T05:08:04.794Z,19.64
2022-08-26T05:09:07.988Z,19.65
2022-08-26T05:10:10.423Z,19.65
2022-08-26T05:11:14.159Z,19.68
2022-08-26T05:12:16.681Z,19.68
2022-08-26T05:13:21.994Z,19.70
2022-08-26T05:14:25.063Z,19.72
2022-08-26T05:15:28.271Z,19.73
2022-08-26T05:16:31.456Z,19.74
2022-08-26T05:17:36.354Z,19.77
2022-08-26T05:18:45.763Z,19.79
2022-08-26T05:19:48.778Z,19.81
2022-08-26T05:20:55.077Z,19.82
2022-08-26T05:21:58.197Z,19.85
2022-08-26T05:23:00.789Z,19.87
2022-08-26T05:24:04.775Z,19.90
2022-08-26T05:25:07.667Z,19.92
2022-08-26T05:26:10.892Z,19.94
2022-08-26T05:27:13.568Z,19.98
2022-08-26T05:28:20.267Z,20.00
2022-08-26T05:29:23.520Z,20.03
2022-08-26T05:30:25.638Z,20.05
2022-08-26T05:31:31.427Z,20.09
2022-08-26T05:32:36.175Z,20.11
2022-08-26T05:33:38.362Z,20.14
2022-08-26T05:34:44.967Z,20.18
2022-08-26T05:35:48.239Z,20.19
2022-08-26T05:36:52.552Z,20.21
2022-08-26T05:37:54.786Z,20.24
2022-08-26T05:38:58.266Z,20.26
2022-08-26T05:40:02.905Z,20.29
2022-08-26T05:41:15.598Z,20.30
2022-08-26T05:42:20.091Z,20.34
2022-08-26T05:43:22.255Z,20.36
2022-08-26T05:44:25.502Z,20.38
2022-08-26T05:45:27.920Z,20.40
2022-08-26T05:46:31.759Z,20.44
2022-08-26T05:47:35.583Z,20.46
2022-08-26T05:50:40.376Z,20.52
2022-08-26T05:51:45.148Z,20.54
2022-08-26T05:52:47.538Z,20.57
2022-08-26T05:53:54.922Z,20.58
2022-08-26T05:54:57.360Z,20.60
2022-08-26T05:56:00.558Z,20.61
2022-08-26T05:57:02.842Z,20.65
2022-08-26T05:58:07.590Z,20.68
2022-08-26T05:59:15.330Z,20.72
2022-08-26T06:00:17.441Z,20.77
2022-08-26T06:01:22.558Z,20.83
2022-08-26T06:02:26.431Z,20.86
2022-08-26T06:03:32.171Z,20.93
2022-08-26T06:04:35.390Z,21.00
2022-08-26T06:05:40.561Z,21.06
2022-08-26T06:06:43.908Z,21.12
2022-08-26T06:08:05.757Z,21.18
2022-08-26T06:09:11.102Z,21.26
2022-08-26T06:10:32.663Z,21.31
2022-08-26T06:11:36.143Z,21.37
2022-08-26T06:12:38.551Z,21.42
2022-08-26T06:13:42.688Z,21.43
2022-08-26T06:14:44.845Z,21.51
2022-08-26T06:15:52.947Z,21.55
2022-08-26T06:16:56.109Z,21.59
2022-08-26T06:17:58.171Z,21.63
2022-08-26T06:19:03.790Z,21.67
2022-08-26T06:20:14.241Z,21.72
2022-08-26T06:21:19.429Z,21.76
2022-08-26T06:22:39.864Z,21.80
2022-08-26T06:24:01.147Z,21.84
2022-08-26T06:25:21.960Z,21.89
2022-08-26T06:26:26.131Z,21.94
2022-08-26T06:27:32.598Z,21.98
2022-08-26T06:28:35.071Z,22.01
2022-08-26T06:29:40.259Z,22.04
2022-08-26T06:30:42.717Z,22.07
2022-08-26T06:31:46.000Z,22.12
2022-08-26T06:32:48.092Z,22.13
2022-08-26T06:33:53.389Z,22.17
2022-08-26T06:34:58.098Z,22.18
2022-08-26T06:36:02.240Z,22.20
2022-08-26T06:37:06.506Z,22.20
2022-08-26T06:38:09.613Z,22.21
2022-08-26T06:39:15.331Z,22.21
2022-08-26T06:40:17.626Z,22.23
2022-08-26T06:41:22.728Z,22.26
2022-08-26T06:42:25.901Z,22.30
2022-08-26T06:43:29.696Z,22.35
2022-08-26T06:44:32.883Z,22.42
2022-08-26T06:45:35.027Z,22.49
2022-08-26T06:46:38.566Z,22.57
2022-08-26T06:47:40.789Z,22.65
2022-08-26T06:48:44.292Z,22.70
2022-08-26T06:49:46.432Z,22.75
2022-08-26T06:50:51.025Z,22.79
2022-08-26T06:51:54.160Z,22.82
2022-08-26T06:52:57.308Z,22.83
2022-08-26T06:54:03.100Z,22.81
2022-08-26T06:55:06.120Z,22.81
2022-08-26T06:56:11.319Z,22.80
2022-08-26T06:57:14.412Z,22.81
2022-08-26T06:58:20.068Z,22.79
2022-08-26T06:59:23.154Z,22.78
2022-08-26T07:00:25.672Z,22.78
2022-08-26T07:01:33.148Z,22.77
2022-08-26T07:02:35.331Z,22.77
2022-08-26T07:03:39.777Z,22.79
2022-08-26T07:04:44.474Z,22.80
2022-08-26T07:05:52.571Z,22.84
2022-08-26T07:06:56.293Z,22.87
2022-08-26T07:07:59.494Z,22.91
2022-08-26T07:09:05.046Z,22.94
2022-08-26T07:10:09.619Z,22.97
2022-08-26T07:11:12.519Z,22.97
2022-08-26T07:12:15.654Z,23.00
2022-08-26T07:13:18.264Z,23.00
2022-08-26T07:14:35.365Z,23.02
2022-08-26T07:15:40.071Z,23.02
2022-08-26T07:16:43.227Z,22.97
2022-08-26T07:17:46.339Z,23.04
2022-08-26T07:18:48.631Z,23.06
2022-08-26T07:19:53.642Z,23.07
2022-08-26T07:20:57.181Z,23.07
2022-08-26T07:22:03.374Z,23.07
2022-08-26T07:23:07.776Z,23.07
2022-08-26T07:24:17.493Z,23.07
2022-08-26T07:25:19.657Z,23.07
2022-08-26T07:26:26.341Z,23.07
2022-08-26T07:27:31.746Z,23.07
2022-08-26T07:28:33.995Z,23.08
2022-08-26T07:29:39.020Z,23.07
2022-08-26T07:30:42.288Z,23.06
2022-08-26T07:31:45.288Z,23.06
2022-08-26T07:32:48.663Z,23.05
2022-08-26T07:33:51.329Z,23.07
2022-08-26T07:34:55.187Z,23.08
2022-08-26T07:35:58.719Z,23.10
2022-08-26T07:37:03.518Z,23.10
2022-08-26T07:38:05.661Z,23.13
2022-08-26T07:39:08.998Z,23.15
2022-08-26T07:40:11.949Z,23.16
2022-08-26T07:41:17.453Z,23.19
2022-08-26T07:42:20.480Z,23.21
2022-08-26T07:43:23.827Z,23.23
2022-08-26T07:44:27.896Z,23.26
2022-08-26T07:45:30.276Z,23.29
2022-08-26T07:46:33.440Z,23.32
2022-08-26T07:47:37.271Z,23.34
2022-08-26T07:48:39.462Z,23.36
2022-08-26T07:49:52.729Z,23.38
2022-08-26T07:50:55.188Z,23.38
2022-08-26T07:52:00.334Z,23.40
2022-08-26T07:53:03.089Z,23.41
2022-08-26T07:54:07.457Z,23.44
2022-08-26T07:55:11.436Z,23.45
2022-08-26T07:56:13.603Z,23.49
2022-08-26T07:57:16.962Z,23.53
2022-08-26T07:58:21.385Z,23.58
2022-08-26T07:59:25.160Z,23.64
2022-08-26T08:00:27.950Z,23.68
2022-08-26T08:01:31.516Z,23.74
2022-08-26T08:02:36.490Z,23.80
2022-08-26T08:03:38.768Z,23.85
2022-08-26T08:04:42.066Z,23.90
2022-08-26T08:05:44.444Z,23.95
2022-08-26T08:06:49.566Z,24.02
2022-08-26T08:07:53.639Z,24.06
2022-08-26T08:09:16.452Z,24.14
2022-08-26T08:10:22.521Z,24.18
2022-08-26T08:11:31.100Z,24.22
2022-08-26T08:12:33.263Z,24.29
2022-08-26T08:13:38.373Z,24.33
2022-08-26T08:14:40.510Z,24.38
2022-08-26T08:15:45.007Z,24.42
2022-08-26T08:16:47.278Z,24.46
2022-08-26T08:17:58.799Z,24.50
2022-08-26T08:19:03.770Z,24.54
2022-08-26T08:20:08.309Z,24.58
2022-08-26T08:21:21.785Z,24.61
2022-08-26T08:22:26.857Z,24.66
2022-08-26T08:23:31.999Z,24.68
2022-08-26T08:24:35.819Z,24.70
2022-08-26T08:25:37.972Z,24.72
2022-08-26T08:26:41.382Z,24.73
2022-08-26T08:27:45.221Z,24.73
2022-08-26T08:28:48.770Z,24.70
2022-08-26T08:29:50.991Z,24.68
2022-08-26T08:30:56.100Z,24.66
2022-08-26T08:31:59.908Z,24.60
2022-08-26T08:33:03.304Z,24.56
2022-08-26T08:34:05.814Z,24.51
2022-08-26T08:35:11.587Z,24.49
2022-08-26T08:36:18.548Z,24.48
2022-08-26T08:37:23.944Z,24.46
2022-08-26T08:38:26.741Z,24.45
2022-08-26T08:39:32.872Z,24.44
2022-08-26T08:40:40.072Z,24.41
2022-08-26T08:41:55.492Z,24.39
2022-08-26T08:43:03.791Z,24.37
2022-08-26T08:44:13.836Z,24.35
2022-08-26T08:45:23.483Z,24.30
2022-08-26T08:46:26.574Z,24.29
2022-08-26T08:47:34.358Z,24.26
2022-08-26T08:48:43.451Z,24.23
2022-08-26T08:49:47.077Z,24.22
2022-08-26T08:50:53.947Z,24.21
2022-08-26T08:52:00.590Z,24.18
2022-08-26T08:53:12.380Z,24.16
2022-08-26T08:54:17.995Z,24.15
2022-08-26T08:55:31.409Z,24.12
2022-08-26T08:56:38.316Z,24.08
2022-08-26T08:58:02.287Z,24.05
2022-08-26T08:59:14.053Z,24.02
2022-08-26T09:00:19.811Z,24.01
2022-08-26T09:01:56.533Z,23.99
2022-08-26T09:03:03.965Z,23.98
2022-08-26T09:04:25.876Z,23.96
2022-08-26T09:05:34.251Z,23.95
2022-08-26T09:06:36.446Z,23.96
2022-08-26T09:07:47.914Z,23.96
2022-08-26T09:08:52.753Z,23.96
2022-08-26T09:09:59.169Z,23.97
2022-08-26T09:11:05.191Z,23.98
2022-08-26T09:12:14.662Z,23.97
2022-08-26T09:13:26.126Z,23.98
2022-08-26T09:14:32.028Z,23.98
2022-08-26T09:15:48.240Z,23.98
2022-08-26T09:17:02.603Z,23.99
2022-08-26T09:18:11.146Z,23.98
2022-08-26T09:19:24.690Z,23.99
2022-08-26T09:20:49.816Z,23.95
2022-08-26T09:21:57.076Z,23.96
2022-08-26T09:23:00.585Z,23.95
2022-08-26T09:24:03.818Z,23.93
2022-08-26T09:25:11.172Z,23.92
2022-08-26T09:26:20.203Z,23.90
2022-08-26T09:27:37.819Z,23.89
2022-08-26T09:28:46.068Z,23.87
2022-08-26T09:29:50.414Z,23.86
2022-08-26T09:31:03.099Z,23.82
2022-08-26T09:32:21.101Z,23.83
2022-08-26T09:33:29.403Z,23.81
2022-08-26T09:34:33.506Z,23.79
2022-08-26T09:35:39.530Z,23.78
2022-08-26T09:36:45.369Z,23.77
2022-08-26T09:38:52.894Z,23.73
2022-08-26T09:40:11.275Z,23.71
2022-08-26T09:41:26.206Z,23.69
2022-08-26T09:42:28.653Z,23.69
2022-08-26T09:43:32.552Z,23.69
2022-08-26T09:44:36.584Z,23.69
2022-08-26T09:45:50.107Z,23.68
2022-08-26T09:46:59.037Z,23.68
2022-08-26T09:48:02.266Z,23.69
2022-08-26T09:49:35.868Z,23.69
2022-08-26T09:50:39.835Z,23.67
2022-08-26T09:51:44.319Z,23.68
2022-08-26T09:53:09.911Z,23.67
2022-08-26T09:54:30.237Z,23.67
2022-08-26T09:55:33.707Z,23.67
2022-08-26T09:56:39.762Z,23.67
2022-08-26T09:57:48.971Z,23.67
2022-08-26T09:58:52.447Z,23.67
2022-08-26T09:59:55.066Z,23.68
2022-08-26T10:01:01.540Z,23.68
2022-08-26T10:02:21.286Z,23.68
2022-08-26T10:03:28.409Z,23.68
2022-08-26T10:04:34.182Z,23.68
2022-08-26T10:05:42.763Z,23.68
2022-08-26T10:06:57.079Z,23.70
2022-08-26T10:08:01.865Z,23.69
2022-08-26T10:09:09.890Z,23.70
2022-08-26T10:10:22.595Z,23.70
2022-08-26T10:11:34.572Z,23.70
2022-08-26T10:12:48.248Z,23.71
2022-08-26T10:13:57.925Z,23.73
2022-08-26T10:15:03.489Z,23.73
2022-08-26T10:16:14.713Z,23.72
2022-08-26T10:17:22.066Z,23.74
2022-08-26T10:18:31.931Z,23.76
2022-08-26T10:19:55.516Z,23.76
2022-08-26T10:21:07.419Z,23.77
2022-08-26T10:22:18.174Z,23.79
2022-08-26T10:23:23.387Z,23.79
2022-08-26T10:24:32.395Z,23.80
2022-08-26T10:25:42.443Z,23.81
2022-08-26T10:26:59.856Z,23.83
2022-08-26T10:28:11.086Z,23.85
2022-08-26T10:29:19.937Z,23.85
2022-08-26T10:30:30.973Z,23.87
2022-08-26T10:31:40.971Z,23.87
2022-08-26T10:32:48.940Z,23.87
2022-08-26T10:33:55.468Z,23.89
2022-08-26T10:35:01.951Z,23.91
2022-08-26T10:36:36.441Z,23.93
2022-08-26T10:37:50.021Z,23.93
2022-08-26T10:38:53.451Z,23.94
2022-08-26T10:40:00.650Z,23.94
2022-08-26T10:41:10.500Z,23.96
2022-08-26T10:42:18.391Z,23.96
2022-08-26T10:43:26.667Z,23.97
2022-08-26T10:44:34.450Z,23.98
2022-08-26T10:45:43.903Z,23.99
2022-08-26T10:46:51.977Z,23.98
2022-08-26T10:47:57.736Z,23.99
2022-08-26T10:49:06.513Z,23.99
2022-08-26T10:50:11.235Z,23.97
2022-08-26T10:51:18.902Z,23.96
2022-08-26T10:52:29.757Z,23.93
2022-08-26T10:53:44.410Z,23.91
2022-08-26T10:54:53.820Z,23.88
2022-08-26T10:56:04.628Z,23.86
2022-08-26T10:57:15.236Z,23.84
2022-08-26T10:58:33.123Z,23.81
2022-08-26T10:59:50.329Z,23.80
2022-08-26T11:01:22.841Z,23.80
2022-08-26T11:02:34.713Z,23.78
2022-08-26T11:03:44.469Z,23.78
2022-08-26T11:04:54.315Z,23.80
2022-08-26T11:06:25.579Z,23.81
2022-08-26T11:07:40.497Z,23.80
2022-08-26T11:08:48.168Z,23.82
2022-08-26T11:09:50.556Z,23.83
2022-08-26T11:10:59.232Z,23.83
2022-08-26T11:12:09.976Z,23.84
2022-08-26T11:13:13.565Z,23.88
2022-08-26T11:14:44.674Z,23.90
2022-08-26T11:16:01.171Z,23.93
2022-08-26T11:17:05.247Z,23.96
2022-08-26T11:18:10.614Z,24.00
2022-08-26T11:20:02.037Z,24.03
2022-08-26T11:21:52.695Z,24.11
2022-08-26T11:22:59.594Z,24.14
2022-08-26T11:24:01.846Z,24.19
2022-08-26T11:25:09.560Z,24.23
2022-08-26T11:26:18.895Z,24.26
2022-08-26T11:28:03.352Z,24.32
2022-08-26T11:29:13.114Z,24.36
2022-08-26T11:30:47.734Z,24.39
2022-08-26T11:32:00.293Z,24.45
2022-08-26T11:33:05.492Z,24.48
2022-08-26T11:34:14.301Z,24.51
2022-08-26T11:35:52.159Z,24.51
2022-08-26T11:37:01.569Z,24.50
2022-08-26T11:38:18.050Z,24.50
2022-08-26T11:39:25.702Z,24.47
2022-08-26T11:40:33.080Z,24.46
2022-08-26T11:41:35.387Z,24.45
2022-08-26T11:42:43.249Z,24.45
2022-08-26T11:43:49.375Z,24.45
2022-08-26T11:44:52.582Z,24.47
2022-08-26T11:46:01.276Z,24.46
2022-08-26T11:47:11.417Z,24.51
2022-08-26T11:48:18.876Z,24.53
2022-08-26T11:49:21.146Z,24.57
2022-08-26T11:50:27.307Z,24.61
2022-08-26T11:51:31.615Z,24.64
2022-08-26T11:52:36.643Z,24.69
2022-08-26T11:53:41.293Z,24.73
2022-08-26T11:55:03.768Z,24.84
2022-08-26T11:56:11.550Z,24.93
2022-08-26T11:57:15.002Z,25.05
2022-08-26T11:58:20.323Z,25.18
2022-08-26T11:59:38.691Z,25.36
2022-08-26T12:00:52.837Z,25.53
2022-08-26T12:01:57.353Z,25.68
2022-08-26T12:03:06.114Z,25.81
2022-08-26T12:04:12.411Z,25.96
2022-08-26T12:05:30.904Z,26.12
2022-08-26T12:06:43.345Z,26.25
2022-08-26T12:07:53.104Z,26.40
2022-08-26T12:08:58.099Z,26.51
2022-08-26T12:10:03.547Z,26.61
2022-08-26T12:11:07.627Z,26.71
2022-08-26T12:12:13.257Z,26.78
2022-08-26T12:13:23.470Z,26.86
2022-08-26T12:14:27.827Z,26.95
2022-08-26T12:15:32.903Z,27.03
2022-08-26T12:16:39.843Z,27.10
2022-08-26T12:17:43.300Z,27.16
2022-08-26T12:18:46.528Z,27.21
2022-08-26T12:19:49.675Z,27.23
2022-08-26T12:20:54.333Z,27.23
2022-08-26T12:22:02.758Z,27.22
2022-08-26T12:23:07.667Z,27.21
2022-08-26T12:24:10.882Z,27.21
2022-08-26T12:25:13.169Z,27.19
2022-08-26T12:26:25.569Z,27.21
2022-08-26T12:27:30.376Z,27.21
2022-08-26T12:28:33.746Z,27.20
2022-08-26T12:29:36.055Z,27.18
2022-08-26T12:30:39.520Z,27.18
2022-08-26T12:31:45.166Z,27.17
2022-08-26T12:32:56.665Z,27.16
2022-08-26T12:34:04.220Z,27.13
2022-08-26T12:35:09.292Z,27.10
2022-08-26T12:36:18.423Z,27.09
2022-08-26T12:37:21.733Z,27.09
2022-08-26T12:38:28.112Z,27.09
2022-08-26T12:39:34.414Z,27.11
2022-08-26T12:40:43.288Z,27.14
2022-08-26T12:41:53.039Z,27.17
2022-08-26T12:42:56.524Z,27.20
2022-08-26T12:43:58.791Z,27.24
2022-08-26T12:45:06.517Z,27.28
2022-08-26T12:46:11.320Z,27.31
2022-08-26T12:47:25.799Z,27.36
2022-08-26T12:48:50.259Z,27.40
2022-08-26T12:50:03.722Z,27.44
2022-08-26T12:51:08.599Z,27.46
2022-08-26T12:52:31.019Z,27.49
2022-08-26T12:53:44.340Z,27.50
2022-08-26T12:55:01.346Z,27.52
2022-08-26T12:56:21.987Z,27.52
2022-08-26T12:57:28.277Z,27.52
2022-08-26T12:58:33.328Z,27.52
2022-08-26T12:59:35.669Z,27.50
2022-08-26T13:00:41.250Z,27.49
2022-08-26T13:01:44.953Z,27.46
2022-08-26T13:02:48.345Z,27.43
2022-08-26T13:03:51.884Z,27.40
2022-08-26T13:05:00.669Z,27.38
2022-08-26T13:06:30.049Z,27.36
2022-08-26T13:07:32.279Z,27.32
2022-08-26T13:08:40.476Z,27.29
2022-08-26T13:09:43.087Z,27.27
2022-08-26T13:10:48.557Z,27.22
2022-08-26T13:12:02.268Z,27.19
2022-08-26T13:13:05.278Z,27.15
2022-08-26T13:14:11.261Z,27.12
2022-08-26T13:15:13.418Z,27.08
2022-08-26T13:16:16.704Z,27.06
2022-08-26T13:17:19.070Z,27.04
2022-08-26T13:18:22.451Z,27.02
2022-08-26T13:19:26.895Z,26.99
2022-08-26T13:20:29.256Z,26.96
2022-08-26T13:21:37.429Z,26.94
2022-08-26T13:23:45.309Z,26.89
2022-08-26T13:24:47.482Z,26.87
2022-08-26T13:25:50.735Z,26.87
2022-08-26T13:26:52.892Z,26.85
2022-08-26T13:27:56.409Z,26.84
2022-08-26T13:29:01.490Z,26.85
2022-08-26T13:30:06.730Z,26.82
2022-08-26T13:31:12.453Z,26.80
2022-08-26T13:32:15.494Z,26.76
2022-08-26T13:33:19.428Z,26.74
2022-08-26T13:34:23.539Z,26.71
2022-08-26T13:35:29.173Z,26.64
2022-08-26T13:36:32.554Z,26.68
2022-08-26T13:37:35.686Z,26.68
2022-08-26T13:38:38.891Z,26.67
2022-08-26T13:39:44.120Z,26.67
2022-08-26T13:40:47.711Z,26.70
2022-08-26T13:41:50.320Z,26.71
2022-08-26T13:42:53.548Z,26.73
2022-08-26T13:43:55.686Z,26.76
2022-08-26T13:44:59.782Z,26.79
2022-08-26T13:46:03.279Z,26.81
2022-08-26T13:47:06.226Z,26.83
2022-08-26T13:48:09.917Z,26.83
2022-08-26T13:49:13.325Z,26.87
2022-08-26T13:50:19.037Z,26.86
2022-08-26T13:51:22.831Z,26.89
2022-08-26T13:52:30.602Z,26.89
2022-08-26T13:53:34.277Z,26.89
2022-08-26T13:54:36.449Z,26.88
2022-08-26T13:55:44.333Z,26.87
2022-08-26T13:56:46.439Z,26.85
2022-08-26T13:57:49.536Z,26.85
2022-08-26T13:58:52.616Z,26.86
2022-08-26T13:59:56.515Z,26.87
2022-08-26T14:00:59.814Z,26.90
2022-08-26T14:02:03.790Z,26.93
2022-08-26T14:03:12.597Z,26.94
2022-08-26T14:04:27.044Z,26.97
2022-08-26T14:05:40.617Z,27.02
2022-08-26T14:06:42.771Z,27.05
2022-08-26T14:07:46.109Z,27.07
2022-08-26T14:08:48.616Z,27.11
2022-08-26T14:09:51.843Z,27.14
2022-08-26T14:10:56.347Z,27.17
2022-08-26T14:12:00.991Z,27.21
2022-08-26T14:13:06.278Z,27.21
2022-08-26T14:14:09.872Z,27.26
2022-08-26T14:15:16.267Z,27.28
2022-08-26T14:16:24.295Z,27.31
2022-08-26T14:17:27.872Z,27.34
2022-08-26T14:18:39.700Z,27.37
2022-08-26T14:19:47.090Z,27.39